CYLU

Kangiqsualujjuaq (Georges River) Airport

Kangiqsualujjuaq, Quebec, Canada
METAR CYLU 172200Z 28021G29KT 2SM BLSN BKN010 OVC027 M13/M16 A2961 RMK SC5SC3 SNW CVR/MUCH LOOSE LAST STFD OBS/NEXT 181300UTC SLP035
Observed Flight Rules
Dec-17 @ 22:00 UTC (5 hours ago) Instrument Flight Rules
Wind Visibility Clouds Conditions
280° at 21 knots
 Gusting to 29 knots
2 miles
  • Broken at 1,000' AGL
  • Overcast at 2,700' AGL
  • Blowing
  • Snow
Temperatures Readings
Current -13°C / 9°F
Dewpoint -16°C / 3°F
Humidity 78%
Altimeter 29.61" Hg
Pressure 1003.5 hPa
Elevation 60
METAR CYLU 172200Z 28021G29KT 2SM BLSN BKN010 OVC027 M13/M16 A2961 RMK SC5SC3 SNW CVR/MUCH LOOSE LAST STFD OBS/NEXT 181300UTC SLP035
Observed Flight Rules
Dec-17 @ 22:00 UTC
(5 hours ago)
IFR
Wind Visibility
280° at 21 knots
 Gusting to 29 knots
2 miles
Clouds
  • Broken at 1,000' AGL
  • Overcast at 2,700' AGL
Conditions
  • Blowing
  • Snow
Temperature Dewpoint
-13°C / 9°F -16°C / 3°F
Humidity Altimeter Pressure
78% 29.61" Hg 1003.5 hPa